Time;durP1;ratioP1;P1;durP2;ratioP2;P2;SDS_P1;SDS_P2;PMS_P1;PMS_P2;Temp;Humidity;BMP_temperature;BMP_pressure;BME280_temperature;BME280_humidity;BME280_pressure;Samples;Min_cycle;Max_cycle;Signal;HPM_P1;HPM_P2
2022/05/22 00:00:20;;;;;;;14.57;4.65;;;11.10;99.90;;;;;;4949527;28;20034;-84
2022/05/22 00:02:46;;;;;;;13.35;4.05;;;11.10;99.90;;;;;;4984716;28;20048;-85
2022/05/22 00:05:16;;;;;;;13.43;4.68;;;11.10;99.90;;;;;;4983626;28;20046;-84
2022/05/22 00:07:42;;;;;;;14.63;4.88;;;11.10;99.90;;;;;;4966916;28;20475;-85
2022/05/22 00:10:08;;;;;;;17.38;4.75;;;11.10;99.90;;;;;;4969777;28;20073;-85
2022/05/22 00:12:34;;;;;;;11.82;4.53;;;11.10;99.90;;;;;;4953413;28;20053;-84
2022/05/22 00:15:01;;;;;;;12.88;4.72;;;11.10;99.90;;;;;;4955426;28;20038;-86
2022/05/22 00:17:27;;;;;;;13.73;4.68;;;11.10;99.90;;;;;;4973674;28;20479;-85
2022/05/22 00:19:52;;;;;;;13.18;4.30;;;11.00;99.90;;;;;;4987148;28;20108;-85
2022/05/22 00:22:18;;;;;;;10.80;4.22;;;11.10;99.90;;;;;;4966153;28;20038;-85
2022/05/22 00:24:44;;;;;;;13.45;4.45;;;11.00;99.90;;;;;;4956663;28;20124;-85
2022/05/22 00:27:10;;;;;;;14.55;5.15;;;11.10;99.90;;;;;;4989103;28;20128;-85
2022/05/22 00:29:36;;;;;;;15.18;4.85;;;11.00;99.90;;;;;;4971507;28;20613;-86
2022/05/22 00:32:03;;;;;;;12.30;4.20;;;11.00;99.90;;;;;;4985580;28;20400;-85
2022/05/22 00:34:29;;;;;;;12.85;4.38;;;11.00;99.90;;;;;;4971533;28;20529;-85
2022/05/22 00:36:55;;;;;;;14.77;5.20;;;11.00;99.90;;;;;;4987884;28;20038;-85
2022/05/22 00:39:21;;;;;;;12.10;4.43;;;11.20;99.90;;;;;;4970896;28;20050;-85
2022/05/22 00:41:51;;;;;;;11.57;4.53;;;11.00;99.90;;;;;;4990185;28;20081;-85
2022/05/22 00:44:17;;;;;;;14.98;4.93;;;11.00;99.90;;;;;;4988356;28;20046;-85
2022/05/22 00:46:43;;;;;;;12.98;5.35;;;12.20;99.90;;;;;;5007335;28;20145;-85
2022/05/22 00:49:21;;;;;;;12.27;4.85;;;10.90;99.90;;;;;;4988271;28;20117;-85
2022/05/22 00:51:49;;;;;;;13.48;4.90;;;11.00;99.90;;;;;;4991190;28;20124;-85
2022/05/22 00:54:21;;;;;;;11.77;4.75;;;11.00;99.90;;;;;;4971865;28;20033;-85
2022/05/22 00:56:52;;;;;;;15.05;5.25;;;10.90;99.90;;;;;;4972708;28;20042;-85
2022/05/22 00:59:24;;;;;;;13.15;5.32;;;10.90;99.90;;;;;;4971122;28;20096;-85
2022/05/22 01:01:51;;;;;;;18.05;5.55;;;10.90;99.90;;;;;;4987737;28;20045;-86
2022/05/22 01:04:22;;;;;;;12.77;4.82;;;11.10;99.90;;;;;;4989093;28;20045;-85
2022/05/22 01:06:49;;;;;;;15.15;5.68;;;10.90;99.90;;;;;;4977845;28;20045;-85
2022/05/22 01:09:16;;;;;;;12.60;5.07;;;10.80;99.90;;;;;;4949477;28;20036;-86
2022/05/22 01:11:42;;;;;;;12.25;5.03;;;10.90;99.90;;;;;;4973829;28;20033;-86
2022/05/22 01:14:12;;;;;;;18.10;5.13;;;10.80;99.90;;;;;;4985412;28;20088;-85
2022/05/22 01:16:38;;;;;;;14.77;5.63;;;11.00;99.90;;;;;;4965118;28;20058;-85
2022/05/22 01:19:12;;;;;;;13.73;5.05;;;10.80;99.90;;;;;;4977678;28;20045;-85
2022/05/22 01:21:39;;;;;;;13.13;4.80;;;10.80;99.90;;;;;;4981846;28;20069;-85
2022/05/22 01:24:07;;;;;;;14.18;5.20;;;10.70;99.90;;;;;;4989026;28;20038;-85
2022/05/22 01:26:33;;;;;;;14.90;5.30;;;10.70;99.90;;;;;;4971765;28;20053;-85
2022/05/22 01:28:59;;;;;;;13.25;5.03;;;10.70;99.90;;;;;;4975424;28;20048;-85
2022/05/22 01:31:24;;;;;;;14.50;5.63;;;10.70;99.90;;;;;;4952793;28;20488;-85
2022/05/22 01:33:50;;;;;;;12.25;5.18;;;10.60;99.90;;;;;;4956891;28;20092;-85
2022/05/22 01:36:16;;;;;;;14.90;5.35;;;10.60;99.90;;;;;;4965700;28;20452;-85
2022/05/22 01:38:43;;;;;;;14.95;5.25;;;10.60;99.90;;;;;;4988372;28;20506;-85
2022/05/22 01:41:09;;;;;;;13.18;5.60;;;10.60;99.90;;;;;;4975056;28;20450;-85
2022/05/22 01:43:35;;;;;;;14.02;5.63;;;10.60;99.90;;;;;;4994113;28;20038;-85
2022/05/22 01:46:02;;;;;;;12.93;5.85;;;10.60;99.90;;;;;;4992210;28;20132;-86
2022/05/22 01:48:28;;;;;;;14.02;5.50;;;10.60;99.90;;;;;;4992085;28;20037;-85
2022/05/22 01:50:54;;;;;;;14.88;6.25;;;10.60;99.90;;;;;;4973083;28;20125;-86
2022/05/22 01:53:21;;;;;;;15.20;6.05;;;10.60;99.90;;;;;;4989878;28;20483;-85
2022/05/22 01:55:50;;;;;;;13.48;5.50;;;10.50;99.90;;;;;;4992222;28;20121;-86
2022/05/22 01:58:15;;;;;;;15.48;5.40;;;10.50;99.90;;;;;;4989932;28;20046;-85
2022/05/22 02:00:42;;;;;;;13.13;5.30;;;10.50;99.90;;;;;;4975917;28;20050;-86
2022/05/22 02:03:07;;;;;;;14.35;5.57;;;10.40;99.90;;;;;;4990937;28;20038;-86
2022/05/22 02:05:35;;;;;;;15.10;5.25;;;10.40;99.90;;;;;;4975002;28;20097;-85
2022/05/22 02:08:21;;;;;;;13.48;5.60;;;10.40;99.90;;;;;;4991952;28;20046;-86
2022/05/22 02:10:51;;;;;;;17.00;6.55;;;10.40;99.90;;;;;;4993330;28;20042;-86
2022/05/22 02:13:20;;;;;;;14.18;6.20;;;10.40;99.90;;;;;;4992500;28;20585;-86
2022/05/22 02:15:48;;;;;;;15.63;6.57;;;10.40;99.90;;;;;;4976290;28;20049;-85
2022/05/22 02:18:13;;;;;;;15.43;6.30;;;10.40;99.90;;;;;;4975228;28;20045;-86
2022/05/22 02:20:39;;;;;;;15.10;5.93;;;10.40;99.90;;;;;;4975064;28;20049;-86
2022/05/22 02:23:06;;;;;;;16.35;6.68;;;11.00;99.90;;;;;;4986576;28;20132;-86
2022/05/22 02:25:34;;;;;;;13.20;5.78;;;10.40;99.90;;;;;;4992791;28;20045;-86
2022/05/22 02:28:02;;;;;;;14.70;5.50;;;10.40;99.90;;;;;;4974044;28;20038;-86
2022/05/22 02:30:31;;;;;;;14.23;5.45;;;10.40;99.90;;;;;;5007997;28;20045;-85
2022/05/22 02:32:57;;;;;;;14.85;5.50;;;10.40;99.90;;;;;;4975747;28;20061;-86
2022/05/22 02:35:23;;;;;;;12.85;5.55;;;10.40;99.90;;;;;;4975906;28;20557;-86
2022/05/22 02:37:54;;;;;;;12.48;5.60;;;10.40;99.90;;;;;;4954062;28;20026;-86
2022/05/22 02:40:22;;;;;;;15.27;5.60;;;10.80;99.90;;;;;;4975042;28;20053;-86
2022/05/22 02:42:50;;;;;;;13.45;5.57;;;10.30;99.90;;;;;;4992968;28;20049;-86
2022/05/22 02:45:19;;;;;;;13.52;5.43;;;10.30;99.90;;;;;;4961300;28;20456;-86
2022/05/22 02:47:45;;;;;;;13.68;5.78;;;10.30;99.90;;;;;;4977421;28;20042;-86
2022/05/22 02:50:12;;;;;;;15.10;5.80;;;10.30;99.90;;;;;;4993160;28;20034;-86
2022/05/22 02:52:38;;;;;;;14.57;5.57;;;10.20;99.90;;;;;;4975802;28;20510;-87
2022/05/22 02:55:05;;;;;;;13.80;5.93;;;10.20;99.90;;;;;;4992835;28;20037;-86
2022/05/22 02:57:36;;;;;;;14.02;5.75;;;10.20;99.90;;;;;;4976346;28;20398;-85
2022/05/22 03:00:08;;;;;;;14.55;5.57;;;10.20;99.90;;;;;;4974537;28;20041;-86
2022/05/22 03:02:34;;;;;;;17.50;6.53;;;10.20;99.90;;;;;;4987717;28;20052;-86
2022/05/22 03:04:59;;;;;;;17.92;6.40;;;10.20;99.90;;;;;;4992858;28;20403;-86
2022/05/22 03:07:25;;;;;;;12.38;5.88;;;10.20;99.90;;;;;;4973567;28;20474;-87
2022/05/22 03:09:51;;;;;;;19.67;6.45;;;10.10;99.90;;;;;;4966052;28;20038;-86
2022/05/22 03:12:22;;;;;;;15.63;6.18;;;10.10;99.90;;;;;;4983081;28;20046;-86
2022/05/22 03:14:59;;;;;;;16.85;6.40;;;10.10;99.90;;;;;;4974541;28;20111;-86
2022/05/22 03:17:25;;;;;;;16.17;6.30;;;10.00;99.90;;;;;;4993793;28;20058;-86
2022/05/22 03:19:51;;;;;;;14.05;6.20;;;10.00;99.90;;;;;;4978995;28;20069;-86
2022/05/22 03:22:17;;;;;;;14.82;5.85;;;10.00;99.90;;;;;;4991506;28;20056;-86
2022/05/22 03:24:43;;;;;;;14.95;5.97;;;10.30;99.90;;;;;;4976277;28;20037;-86
2022/05/22 03:27:15;;;;;;;16.38;5.90;;;10.00;99.90;;;;;;4990757;28;20128;-86
2022/05/22 03:29:42;;;;;;;17.98;6.88;;;9.90;99.90;;;;;;4974033;28;20514;-86
2022/05/22 03:32:09;;;;;;;17.38;6.63;;;10.30;99.90;;;;;;4970784;28;20035;-86
2022/05/22 03:34:35;;;;;;;15.35;5.90;;;9.90;99.90;;;;;;4969945;28;20185;-86
2022/05/22 03:37:01;;;;;;;17.48;6.45;;;10.00;99.90;;;;;;4978536;28;20376;-86
2022/05/22 03:39:28;;;;;;;19.15;6.93;;;10.00;99.90;;;;;;4973521;28;20149;-86
2022/05/22 03:41:54;;;;;;;13.93;5.97;;;10.00;99.90;;;;;;4988655;28;20036;-87
2022/05/22 03:44:20;;;;;;;17.95;6.28;;;10.00;99.90;;;;;;4959690;28;20503;-86
2022/05/22 03:46:46;;;;;;;12.38;5.45;;;10.00;99.90;;;;;;4976834;28;20129;-85
2022/05/22 03:49:12;;;;;;;14.77;6.22;;;10.00;99.90;;;;;;4979901;28;20128;-85
2022/05/22 03:51:39;;;;;;;13.85;6.00;;;10.10;99.90;;;;;;4979220;28;20092;-85
2022/05/22 03:54:06;;;;;;;17.75;6.63;;;10.60;99.90;;;;;;4990782;28;20056;-84
2022/05/22 03:56:31;;;;;;;14.32;6.05;;;10.10;99.90;;;;;;4991440;28;20038;-85
2022/05/22 03:58:57;;;;;;;14.88;6.22;;;10.10;99.90;;;;;;4997578;28;20042;-85
2022/05/22 04:01:23;;;;;;;13.35;5.65;;;10.10;99.90;;;;;;4938513;28;20049;-86
2022/05/22 04:03:49;;;;;;;15.48;6.20;;;10.00;99.90;;;;;;4957945;28;20041;-85
2022/05/22 04:06:14;;;;;;;14.63;5.93;;;10.10;99.90;;;;;;4941592;28;20046;-85
2022/05/22 04:08:40;;;;;;;14.23;6.00;;;10.10;99.90;;;;;;4971673;28;20430;-86
2022/05/22 04:11:13;;;;;;;15.30;6.05;;;10.10;99.90;;;;;;4975540;28;20040;-86
2022/05/22 04:13:39;;;;;;;14.57;5.53;;;10.20;99.90;;;;;;4972702;28;20053;-86
2022/05/22 04:16:06;;;;;;;13.50;6.28;;;10.20;99.90;;;;;;4983668;28;20058;-85
2022/05/22 04:18:32;;;;;;;17.25;6.45;;;10.30;99.90;;;;;;4958110;28;20527;-85
2022/05/22 04:20:58;;;;;;;13.60;5.53;;;10.30;99.90;;;;;;4966391;28;20133;-85
2022/05/22 04:26:08;;;;;;;14.10;5.85;;;10.40;99.90;;;;;;4951248;28;20130;-86
2022/05/22 04:28:35;;;;;;;14.57;5.97;;;10.50;99.90;;;;;;4952918;28;20114;-85
2022/05/22 04:31:03;;;;;;;14.68;6.10;;;10.60;99.90;;;;;;4949775;28;20039;-85
2022/05/22 04:33:30;;;;;;;15.43;6.18;;;10.60;99.90;;;;;;4969267;28;20038;-86
2022/05/22 04:35:56;;;;;;;16.02;5.53;;;11.40;99.90;;;;;;4948916;28;20046;-85
2022/05/22 04:38:22;;;;;;;16.95;5.85;;;10.70;99.90;;;;;;4953257;28;20069;-85
2022/05/22 04:41:01;;;;;;;15.40;5.90;;;10.70;99.90;;;;;;4950648;28;20047;-85
2022/05/22 04:43:28;;;;;;;15.38;5.80;;;10.80;99.90;;;;;;4967826;28;20471;-85
2022/05/22 04:45:54;;;;;;;15.85;5.70;;;10.90;99.90;;;;;;4950971;28;20062;-85
2022/05/22 04:48:21;;;;;;;17.40;5.63;;;11.10;99.90;;;;;;4935718;28;20039;-85
2022/05/22 04:50:49;;;;;;;15.60;6.03;;;10.90;99.90;;;;;;4951379;28;20439;-85
2022/05/22 04:53:15;;;;;;;15.05;5.43;;;10.90;99.90;;;;;;4951396;28;20106;-85
2022/05/22 04:55:41;;;;;;;13.70;5.38;;;11.20;99.90;;;;;;4943058;28;20102;-85
2022/05/22 04:58:07;;;;;;;14.13;5.65;;;11.00;99.90;;;;;;4952519;28;20043;-85
2022/05/22 05:00:33;;;;;;;14.82;5.47;;;11.00;99.90;;;;;;4951502;28;20415;-85
2022/05/22 05:02:58;;;;;;;14.15;5.60;;;11.10;99.90;;;;;;4951676;28;20042;-85
2022/05/22 05:05:24;;;;;;;13.63;5.70;;;11.20;99.90;;;;;;4966885;28;20035;-84
2022/05/22 05:07:50;;;;;;;12.50;5.40;;;11.30;99.90;;;;;;4936470;28;20093;-84
2022/05/22 05:10:16;;;;;;;13.90;5.22;;;11.30;99.90;;;;;;4951509;28;20085;-85
2022/05/22 05:12:42;;;;;;;12.68;4.97;;;11.40;99.90;;;;;;4950225;28;20436;-84
2022/05/22 05:15:10;;;;;;;16.90;5.60;;;11.50;99.90;;;;;;4955817;28;20377;-85
2022/05/22 05:17:36;;;;;;;12.98;5.20;;;11.60;99.90;;;;;;4969908;28;20045;-83
2022/05/22 05:20:03;;;;;;;13.73;5.20;;;11.70;99.90;;;;;;4965934;28;20050;-84
2022/05/22 05:22:32;;;;;;;13.75;4.97;;;11.80;99.90;;;;;;5003032;28;20498;-84
2022/05/22 05:24:59;;;;;;;16.13;5.38;;;11.80;99.90;;;;;;4977819;28;20049;-84
2022/05/22 05:27:25;;;;;;;14.73;5.57;;;11.90;99.90;;;;;;4978349;28;20042;-84
2022/05/22 05:29:51;;;;;;;11.80;5.03;;;12.00;99.90;;;;;;4978425;28;20131;-84
2022/05/22 05:32:19;;;;;;;12.93;4.72;;;12.10;99.90;;;;;;4995020;28;20045;-83
2022/05/22 05:34:44;;;;;;;16.25;5.32;;;12.20;99.90;;;;;;4979045;28;20034;-83
2022/05/22 05:37:10;;;;;;;16.60;5.35;;;12.20;99.90;;;;;;4952248;28;20694;-84
2022/05/22 05:39:36;;;;;;;14.90;5.20;;;12.30;99.90;;;;;;4945529;28;20038;-83
2022/05/22 05:42:02;;;;;;;16.83;6.00;;;12.40;99.90;;;;;;4975754;28;20041;-84
2022/05/22 05:44:28;;;;;;;15.20;5.38;;;12.40;99.90;;;;;;4950602;28;20042;-85
2022/05/22 05:46:54;;;;;;;14.20;5.47;;;12.50;99.90;;;;;;4996809;28;20045;-84
2022/05/22 05:49:20;;;;;;;14.60;5.50;;;12.50;99.90;;;;;;4957894;28;20136;-84
2022/05/22 05:51:45;;;;;;;12.52;5.28;;;12.60;99.90;;;;;;4940466;28;20121;-83
2022/05/22 05:54:11;;;;;;;15.35;6.10;;;12.70;99.90;;;;;;4974159;28;20074;-84
2022/05/22 05:56:39;;;;;;;13.77;5.78;;;12.80;99.90;;;;;;4959562;28;20046;-84
2022/05/22 05:59:05;;;;;;;14.75;5.57;;;12.90;99.90;;;;;;4993631;28;20356;-83
2022/05/22 06:01:33;;;;;;;16.75;5.82;;;13.00;99.90;;;;;;4992879;28;20129;-84
2022/05/22 06:04:00;;;;;;;19.17;6.45;;;13.00;99.90;;;;;;4978029;28;20041;-84
2022/05/22 06:06:26;;;;;;;15.82;6.15;;;13.10;99.90;;;;;;4993621;28;20038;-84
2022/05/22 06:08:52;;;;;;;15.25;5.78;;;13.20;99.90;;;;;;4974980;28;20502;-84
2022/05/22 06:11:19;;;;;;;18.85;6.38;;;13.30;99.90;;;;;;4972485;28;20421;-84
2022/05/22 06:13:44;;;;;;;17.83;5.72;;;13.40;99.90;;;;;;4992028;28;20498;-83
2022/05/22 06:16:11;;;;;;;16.45;6.10;;;13.60;99.90;;;;;;4973640;28;20081;-84
2022/05/22 06:18:37;;;;;;;15.88;5.85;;;13.70;99.90;;;;;;4969832;28;20053;-84
2022/05/22 06:21:11;;;;;;;16.65;6.50;;;13.70;99.90;;;;;;4971342;28;20050;-83
2022/05/22 06:23:38;;;;;;;16.02;6.15;;;13.80;99.90;;;;;;4985880;28;20046;-83
2022/05/22 06:26:06;;;;;;;19.45;6.75;;;13.80;99.90;;;;;;4968877;28;20035;-83
2022/05/22 06:28:31;;;;;;;12.25;5.85;;;13.90;99.90;;;;;;4981231;28;20515;-83
2022/05/22 06:30:57;;;;;;;15.48;6.28;;;14.00;99.90;;;;;;4987362;28;20121;-83
2022/05/22 06:33:23;;;;;;;18.17;6.75;;;14.10;99.90;;;;;;4989165;28;20100;-83
2022/05/22 06:35:49;;;;;;;19.33;6.15;;;14.20;99.90;;;;;;4990197;28;20041;-84
2022/05/22 06:41:05;;;;;;;16.70;6.05;;;14.40;99.90;;;;;;4971049;28;20038;-84
2022/05/22 06:43:30;;;;;;;13.32;5.55;;;14.40;99.90;;;;;;4969482;28;20526;-83
2022/05/22 06:45:56;;;;;;;19.30;5.63;;;14.50;99.90;;;;;;4973578;28;20042;-84
2022/05/22 06:48:22;;;;;;;14.85;5.78;;;14.70;99.90;;;;;;4987896;28;20077;-84
2022/05/22 06:50:47;;;;;;;14.45;5.70;;;14.70;99.90;;;;;;4969959;28;20038;-84
2022/05/22 06:53:13;;;;;;;15.57;4.90;;;14.80;99.90;;;;;;4962945;28;20093;-83
2022/05/22 06:55:40;;;;;;;14.32;5.10;;;14.80;99.90;;;;;;4963838;28;20030;-84
2022/05/22 06:58:06;;;;;;;13.85;4.60;;;;;;;;;;4983007;28;20038;-83
2022/05/22 07:00:32;;;;;;;15.85;4.53;;;15.00;99.90;;;;;;4969079;28;20061;-83
2022/05/22 07:02:58;;;;;;;17.50;5.55;;;15.00;99.90;;;;;;4990719;28;20035;-84
2022/05/22 07:05:24;;;;;;;16.35;4.68;;;15.00;99.90;;;;;;5004448;28;20038;-84
2022/05/22 07:07:49;;;;;;;12.13;4.72;;;15.10;99.90;;;;;;4972774;28;20516;-84
2022/05/22 07:10:15;;;;;;;11.60;3.60;;;15.20;99.90;;;;;;4997849;28;20444;-83
2022/05/22 07:12:41;;;;;;;12.25;3.85;;;15.30;99.90;;;;;;4958001;28;20039;-84
2022/05/22 07:15:07;;;;;;;12.15;4.03;;;15.50;99.90;;;;;;4971571;28;20035;-84
2022/05/22 07:17:33;;;;;;;11.52;3.85;;;15.60;99.90;;;;;;4971227;28;20146;-84
2022/05/22 07:19:59;;;;;;;14.30;4.43;;;15.70;99.90;;;;;;4995383;28;20117;-84
2022/05/22 07:22:26;;;;;;;12.88;4.38;;;15.80;99.90;;;;;;4962066;28;20050;-84
2022/05/22 07:24:52;;;;;;;12.85;4.00;;;15.80;99.90;;;;;;4974724;28;20046;-84
2022/05/22 07:27:18;;;;;;;16.83;4.70;;;15.90;99.90;;;;;;4992447;28;20050;-84
2022/05/22 07:29:44;;;;;;;11.73;4.10;;;16.00;99.90;;;;;;4967254;28;20042;-84
2022/05/22 07:32:10;;;;;;;13.15;4.13;;;16.00;99.90;;;;;;4971301;28;20046;-84
2022/05/22 07:34:36;;;;;;;12.05;4.38;;;16.00;99.90;;;;;;4973764;28;20125;-84
2022/05/22 07:37:04;;;;;;;14.20;4.55;;;16.10;99.90;;;;;;4984415;28;20117;-84
2022/05/22 07:39:30;;;;;;;13.40;4.40;;;16.20;99.90;;;;;;4963546;28;20069;-84
2022/05/22 07:41:56;;;;;;;14.43;4.30;;;16.20;99.90;;;;;;4960251;28;20068;-84
2022/05/22 07:44:22;;;;;;;13.93;4.60;;;16.40;99.90;;;;;;4968972;28;20555;-85
2022/05/22 07:46:48;;;;;;;13.43;4.28;;;16.30;99.90;;;;;;4941941;28;20125;-84
2022/05/22 07:52:05;;;;;;;14.27;4.28;;;16.50;99.90;;;;;;5001987;28;20054;-85
2022/05/22 07:54:33;;;;;;;14.70;4.20;;;16.50;99.90;;;;;;4969090;28;20042;-85
2022/05/22 07:56:59;;;;;;;12.50;3.80;;;16.70;99.90;;;;;;4980131;28;20088;-84
2022/05/22 07:59:25;;;;;;;15.07;4.32;;;16.70;99.90;;;;;;4968407;28;20062;-85
2022/05/22 08:01:50;;;;;;;16.95;4.53;;;16.80;99.90;;;;;;4972662;28;20042;-84
2022/05/22 08:04:16;;;;;;;12.68;4.05;;;16.80;99.90;;;;;;4941723;28;20406;-85
2022/05/22 08:06:42;;;;;;;14.95;4.30;;;16.90;99.90;;;;;;4960819;28;20043;-85
2022/05/22 08:09:07;;;;;;;13.25;4.15;;;16.70;99.90;;;;;;4950441;28;20045;-86
2022/05/22 08:11:33;;;;;;;12.50;3.75;;;16.70;99.90;;;;;;4984076;28;20373;-85
2022/05/22 08:13:59;;;;;;;12.73;4.38;;;16.80;99.90;;;;;;4960589;28;20050;-84
2022/05/22 08:16:24;;;;;;;14.00;3.60;;;16.90;99.90;;;;;;4969090;28;20117;-85
2022/05/22 08:18:50;;;;;;;14.35;4.00;;;17.10;99.90;;;;;;4988900;28;20525;-86
2022/05/22 08:21:16;;;;;;;10.55;3.13;;;17.10;99.90;;;;;;4969498;28;20039;-87
2022/05/22 08:23:42;;;;;;;12.15;3.40;;;17.00;99.90;;;;;;4969569;28;20049;-86
2022/05/22 08:26:07;;;;;;;9.93;3.08;;;16.90;99.90;;;;;;4972615;28;20045;-86
2022/05/22 08:28:33;;;;;;;11.95;3.40;;;17.00;99.90;;;;;;4971612;28;20066;-87
2022/05/22 08:30:59;;;;;;;12.40;3.42;;;17.30;99.90;;;;;;4973023;28;20038;-85
2022/05/22 08:33:24;;;;;;;12.45;3.13;;;17.40;99.90;;;;;;4965507;28;20042;-86
2022/05/22 08:35:52;;;;;;;12.85;3.28;;;17.60;99.90;;;;;;4989443;28;20049;-86
2022/05/22 08:38:18;;;;;;;11.00;3.38;;;17.70;99.90;;;;;;4975475;28;20205;-86
2022/05/22 08:41:12;;;;;;;11.20;3.47;;;17.70;99.90;;;;;;4968249;28;20038;-87
2022/05/22 08:43:49;;;;;;;10.13;3.03;;;17.60;99.90;;;;;;4978402;28;20125;-87
2022/05/22 08:46:31;;;;;;;11.73;3.30;;;17.80;99.90;;;;;;4979609;28;20518;-86
2022/05/22 08:49:01;;;;;;;9.30;2.83;;;18.00;99.90;;;;;;4971971;28;20043;-86
2022/05/22 08:51:27;;;;;;;11.32;2.70;;;18.30;99.90;;;;;;4987625;28;20038;-87
2022/05/22 08:53:58;;;;;;;11.50;2.92;;;18.40;99.90;;;;;;4988013;28;20534;-87
2022/05/22 08:59:24;;;;;;;10.15;2.58;;;18.60;99.90;;;;;;4993251;28;20054;-86
2022/05/22 09:02:24;;;;;;;9.55;2.40;;;18.70;99.90;;;;;;4976319;28;20068;-86
2022/05/22 09:05:15;;;;;;;10.45;2.35;;;18.70;99.90;;;;;;5004189;28;20054;-86
2022/05/22 09:08:06;;;;;;;9.50;2.70;;;18.80;99.90;;;;;;4976519;28;20077;-86
2022/05/22 09:10:53;;;;;;;11.05;2.70;;;18.80;99.90;;;;;;4978564;28;20042;-86
2022/05/22 09:13:51;;;;;;;10.20;2.63;;;19.00;99.90;;;;;;4987754;28;20301;-86
2022/05/22 09:16:28;;;;;;;11.43;2.75;;;18.90;99.90;;;;;;4972716;28;20062;-86
2022/05/22 09:19:11;;;;;;;10.55;2.58;;;18.60;99.90;;;;;;4972772;28;20058;-86
2022/05/22 09:21:55;;;;;;;;;;;18.80;99.90;;;;;;4969468;28;20120;-86
2022/05/22 09:24:39;;;;;;;9.40;2.65;;;18.90;99.90;;;;;;4984895;28;19921;-85
2022/05/22 09:27:17;;;;;;;9.25;2.28;;;19.20;99.90;;;;;;4966638;28;20468;-87
2022/05/22 09:30:04;;;;;;;8.50;2.00;;;19.40;99.90;;;;;;4984867;28;20085;-87
2022/05/22 09:33:05;;;;;;;10.55;2.30;;;19.60;99.90;;;;;;4968911;28;20400;-87
2022/05/22 09:35:49;;;;;;;10.20;2.50;;;19.80;99.90;;;;;;4972633;28;20045;-87
2022/05/22 09:38:36;;;;;;;12.30;3.00;;;19.90;99.90;;;;;;4987874;28;20046;-87
2022/05/22 09:41:31;;;;;;;9.68;2.20;;;20.00;99.90;;;;;;4984735;28;20034;-88
2022/05/22 09:44:20;;;;;;;8.75;2.10;;;20.00;99.90;;;;;;4968156;28;20039;-88
2022/05/22 09:47:17;;;;;;;8.15;2.20;;;20.10;99.90;;;;;;4983884;28;20545;-88
2022/05/22 09:50:01;;;;;;;9.55;2.28;;;20.20;99.90;;;;;;4988636;28;20289;-88
2022/05/22 09:52:33;;;;;;;9.65;2.22;;;20.30;99.90;;;;;;4989708;28;20061;-88
2022/05/22 09:55:10;;;;;;;7.22;1.95;;;20.40;99.90;;;;;;5001758;28;20049;-88
2022/05/22 09:58:08;;;;;;;8.95;2.35;;;20.50;99.90;;;;;;4986418;28;20153;-88
2022/05/22 10:00:44;;;;;;;9.25;2.25;;;20.20;99.90;;;;;;4954366;28;20085;-88
2022/05/22 10:03:19;;;;;;;10.70;2.20;;;19.70;99.90;;;;;;4988722;28;20057;-87
2022/05/22 10:06:13;;;;;;;8.18;2.13;;;19.30;99.90;;;;;;4972782;28;20125;-87
2022/05/22 10:08:50;;;;;;;9.00;2.10;;;19.20;99.90;;;;;;4965315;28;20081;-88
2022/05/22 10:11:34;;;;;;;9.85;2.30;;;19.20;99.90;;;;;;4991294;28;20515;-88
2022/05/22 10:14:32;;;;;;;9.90;2.22;;;19.30;99.90;;;;;;4971190;28;20034;-88
2022/05/22 10:17:23;;;;;;;10.73;2.30;;;19.10;99.90;;;;;;4988754;28;20058;-88
2022/05/22 10:20:11;;;;;;;7.25;1.80;;;19.20;99.90;;;;;;4991776;28;20057;-88
2022/05/22 10:22:37;;;;;;;9.57;1.88;;;19.40;99.90;;;;;;4979029;28;20101;-88
2022/05/22 10:25:18;;;;;;;6.95;1.80;;;19.60;99.90;;;;;;4971460;28;20521;-88
2022/05/22 10:28:04;;;;;;;9.68;2.35;;;19.70;99.90;;;;;;4978001;28;20048;-89
2022/05/22 10:30:39;;;;;;;6.55;1.92;;;19.70;99.90;;;;;;5003345;28;20038;-87
2022/05/22 10:33:29;;;;;;;9.32;2.20;;;19.80;99.90;;;;;;4989790;28;20034;-88
2022/05/22 10:36:05;;;;;;;8.32;1.90;;;19.90;99.90;;;;;;4987049;28;20122;-87
2022/05/22 10:38:40;;;;;;;8.32;1.90;;;20.00;99.90;;;;;;4972453;28;20042;-87
2022/05/22 10:44:30;;;;;;;7.63;2.15;;;20.40;99.90;;;;;;4993464;28;20136;-92
2022/05/22 10:46:59;;;;;;;6.85;1.83;;;20.40;99.90;;;;;;4967539;28;20667;-89
2022/05/22 10:49:37;;;;;;;7.38;1.70;;;20.40;99.90;;;;;;4970177;28;20035;-89
2022/05/22 10:52:04;;;;;;;7.97;1.80;;;20.40;99.90;;;;;;4989870;28;20079;-89
2022/05/22 10:54:33;;;;;;;9.32;2.17;;;20.50;99.90;;;;;;4971944;28;20096;-90
2022/05/22 10:57:16;;;;;;;8.45;2.40;;;20.70;99.90;;;;;;4974977;28;20053;-90
2022/05/22 10:59:45;;;;;;;10.65;2.00;;;21.00;99.90;;;;;;4982866;28;20048;-93
2022/05/22 11:02:22;;;;;;;9.68;2.10;;;21.20;99.90;;;;;;4986546;28;20045;-93
2022/05/22 11:04:49;;;;;;;9.65;2.15;;;21.30;99.90;;;;;;4992425;28;20073;-92
2022/05/22 11:07:47;;;;;;;9.02;1.90;;;21.30;99.90;;;;;;4973866;28;20130;-91
2022/05/22 11:10:21;;;;;;;9.43;2.38;;;21.40;99.90;;;;;;4972862;28;20049;-89
2022/05/22 11:13:09;;;;;;;8.23;2.33;;;21.50;99.90;;;;;;4973153;28;20426;-89
2022/05/22 11:15:39;;;;;;;8.85;2.15;;;21.20;99.90;;;;;;5004432;28;20038;-88
2022/05/22 11:18:08;;;;;;;9.18;1.85;;;20.90;99.90;;;;;;4998080;28;20465;-88
2022/05/22 11:20:36;;;;;;;10.48;2.03;;;21.00;99.90;;;;;;4989475;28;20053;-88
2022/05/22 11:23:06;;;;;;;9.40;2.17;;;21.00;99.90;;;;;;4985433;28;20037;-87
2022/05/22 11:25:56;;;;;;;8.77;2.10;;;21.20;99.90;;;;;;4987709;28;20072;-87
2022/05/22 11:29:00;;;;;;;9.05;2.00;;;21.00;99.90;;;;;;4976596;28;20133;-87
2022/05/22 11:31:37;;;;;;;6.25;1.75;;;21.20;99.90;;;;;;4980568;28;20419;-87
2022/05/22 11:34:09;;;;;;;8.50;2.08;;;21.20;99.90;;;;;;4975139;28;20510;-87
2022/05/22 11:36:53;;;;;;;8.80;2.30;;;21.40;99.90;;;;;;4989588;28;20049;-87
2022/05/22 11:39:22;;;;;;;10.07;2.10;;;21.50;99.90;;;;;;4994241;28;20518;-87
2022/05/22 11:41:53;;;;;;;8.18;1.90;;;21.70;99.90;;;;;;4990840;28;20403;-86
2022/05/22 11:44:56;;;;;;;7.68;1.85;;;21.70;99.90;;;;;;4997204;28;20038;-87
2022/05/22 11:47:22;;;;;;;8.57;2.00;;;21.80;99.90;;;;;;4984719;28;20069;-87
2022/05/22 11:50:16;;;;;;;6.80;1.63;;;21.70;99.90;;;;;;4975158;28;20084;-87
2022/05/22 11:53:22;;;;;;;7.22;2.05;;;21.50;99.90;;;;;;4963079;28;20058;-87
2022/05/22 11:56:08;;;;;;;6.97;2.10;;;21.30;99.90;;;;;;4924372;28;20042;-87
2022/05/22 11:58:44;;;;;;;7.30;1.80;;;21.60;99.90;;;;;;4988522;28;20029;-87
2022/05/22 12:01:36;;;;;;;8.20;1.90;;;21.70;99.90;;;;;;4975536;28;20044;-88
2022/05/22 12:04:19;;;;;;;8.87;2.00;;;21.80;99.90;;;;;;4992741;28;20065;-89
2022/05/22 12:06:53;;;;;;;;;;;21.70;99.90;;;;;;5010686;28;20053;-88
2022/05/22 12:09:55;;;;;;;10.35;2.20;;;21.60;99.90;;;;;;4992278;28;20382;-89
2022/05/22 12:13:02;;;;;;;10.10;2.33;;;21.30;99.90;;;;;;5004499;28;20042;-88
2022/05/22 12:16:10;;;;;;;9.75;1.90;;;21.10;99.90;;;;;;5003440;28;20127;-88
2022/05/22 12:18:41;;;;;;;8.98;2.30;;;20.80;99.90;;;;;;5010756;28;20084;-88
2022/05/22 12:21:38;;;;;;;7.80;2.00;;;20.60;99.90;;;;;;4989161;28;20100;-87
2022/05/22 12:24:29;;;;;;;7.57;1.92;;;20.50;99.90;;;;;;4973921;28;20073;-87
2022/05/22 12:26:56;;;;;;;10.25;1.90;;;20.50;99.90;;;;;;4988341;28;20042;-88
2022/05/22 12:29:50;;;;;;;7.55;1.88;;;20.40;99.90;;;;;;4966758;28;20042;-89
2022/05/22 12:32:25;;;;;;;6.80;2.03;;;20.30;99.90;;;;;;4954864;28;20054;-88
2022/05/22 12:34:54;;;;;;;7.45;2.00;;;20.30;99.90;;;;;;4968934;28;20434;-88
2022/05/22 12:37:39;;;;;;;7.18;1.80;;;20.50;99.90;;;;;;5001543;28;20046;-88
2022/05/22 12:40:26;;;;;;;8.10;1.83;;;20.80;99.90;;;;;;4974678;28;20064;-88
2022/05/22 12:42:56;;;;;;;7.15;1.98;;;21.00;99.90;;;;;;5004564;28;20050;-89
2022/05/22 12:45:25;;;;;;;8.98;2.10;;;20.90;99.90;;;;;;4988328;28;20037;-87
2022/05/22 12:47:53;;;;;;;8.98;2.03;;;20.80;99.90;;;;;;4967390;28;20034;-88
2022/05/22 12:50:32;;;;;;;7.55;1.80;;;20.80;99.90;;;;;;4621086;28;9999911;-89
2022/05/22 12:52:58;;;;;;;10.45;2.30;;;21.00;99.90;;;;;;4969881;28;20034;-89
2022/05/22 12:55:35;;;;;;;10.48;2.30;;;20.90;99.90;;;;;;4968173;28;20116;-88
2022/05/22 12:58:03;;;;;;;10.02;2.15;;;20.90;99.90;;;;;;4983894;28;20552;-88
2022/05/22 13:00:42;;;;;;;8.13;2.03;;;20.90;99.90;;;;;;4952187;28;20077;-88
2022/05/22 13:03:18;;;;;;;8.80;2.28;;;20.80;99.90;;;;;;4984476;28;20045;-88
2022/05/22 13:05:57;;;;;;;7.97;2.15;;;21.20;99.90;;;;;;4971700;28;20042;-88
2022/05/22 13:08:41;;;;;;;8.45;2.15;;;21.30;99.90;;;;;;5000838;28;20087;-87
2022/05/22 13:11:19;;;;;;;8.07;2.00;;;21.50;99.90;;;;;;4971547;28;20057;-88
2022/05/22 13:13:48;;;;;;;8.27;2.10;;;21.50;99.90;;;;;;4981616;28;20046;-88
2022/05/22 13:16:28;;;;;;;8.45;2.38;;;21.40;99.90;;;;;;4985528;28;20058;-88